Time;durP1;ratioP1;P1;durP2;ratioP2;P2;SDS_P1;SDS_P2;PMS_P1;PMS_P2;Temp;Humidity;BMP_temperature;BMP_pressure;BME280_temperature;BME280_humidity;BME280_pressure;Samples;Min_cycle;Max_cycle;Signal;HPM_P1;HPM_P2
2021/12/26 00:00:24;;;;;;;5.80;2.70;;;-0.90;99.90;;;;;;5029743;28;20030;-73
2021/12/26 00:02:50;;;;;;;5.60;2.58;;;-0.80;99.90;;;;;;5029576;28;20356;-74
2021/12/26 00:05:16;;;;;;;6.18;2.90;;;-0.90;99.90;;;;;;5029075;28;20044;-74
2021/12/26 00:07:42;;;;;;;3.92;2.38;;;-0.90;99.90;;;;;;5029424;28;20036;-73
2021/12/26 00:10:10;;;;;;;6.40;2.50;;;-0.90;99.90;;;;;;5029318;28;20090;-74
2021/12/26 00:12:36;;;;;;;5.78;3.08;;;-0.90;99.90;;;;;;5029187;28;20033;-75
2021/12/26 00:15:04;;;;;;;11.13;4.18;;;-1.00;99.90;;;;;;5030216;28;20474;-73
2021/12/26 00:17:30;;;;;;;5.40;2.90;;;-1.00;99.90;;;;;;5030068;28;20039;-73
2021/12/26 00:19:55;;;;;;;6.25;3.38;;;-1.00;99.90;;;;;;5029678;28;20021;-73
2021/12/26 00:22:21;;;;;;;7.47;2.88;;;-1.10;99.90;;;;;;5029574;28;20029;-73
2021/12/26 00:24:46;;;;;;;7.00;2.90;;;-1.10;99.90;;;;;;5029452;28;20029;-73
2021/12/26 00:27:13;;;;;;;6.05;3.00;;;-1.10;99.90;;;;;;5028292;28;20037;-73
2021/12/26 00:29:39;;;;;;;5.15;2.90;;;-1.10;99.90;;;;;;5028975;28;20155;-73
2021/12/26 00:32:06;;;;;;;4.55;2.47;;;-1.10;99.90;;;;;;5029303;28;20039;-73
2021/12/26 00:34:32;;;;;;;7.68;2.63;;;-1.10;99.90;;;;;;5027958;28;20100;-73
2021/12/26 00:36:58;;;;;;;5.82;2.78;;;-1.20;99.90;;;;;;5029777;28;20102;-73
2021/12/26 00:39:24;;;;;;;5.28;2.75;;;-1.20;99.90;;;;;;5029012;28;20093;-73
2021/12/26 00:41:49;;;;;;;5.35;2.45;;;-1.20;99.90;;;;;;5029429;28;20022;-73
2021/12/26 00:44:15;;;;;;;5.75;2.78;;;-1.20;99.90;;;;;;5028991;28;20103;-73
2021/12/26 00:46:41;;;;;;;5.85;2.60;;;-1.20;99.90;;;;;;5029108;28;20033;-73
2021/12/26 00:49:08;;;;;;;4.40;2.75;;;-1.30;99.90;;;;;;5028967;28;20092;-73
2021/12/26 00:51:33;;;;;;;5.28;2.58;;;-1.30;99.90;;;;;;5027411;28;20034;-73
2021/12/26 00:53:59;;;;;;;6.70;2.92;;;-1.30;99.90;;;;;;5028977;28;20037;-73
2021/12/26 00:56:24;;;;;;;4.80;2.72;;;-1.40;99.90;;;;;;5027316;28;20120;-73
2021/12/26 00:58:50;;;;;;;3.95;2.30;;;-1.40;99.90;;;;;;5028804;28;20108;-73
2021/12/26 01:01:16;;;;;;;6.15;2.42;;;-1.40;99.90;;;;;;5027686;28;20494;-73
2021/12/26 01:03:42;;;;;;;8.20;2.65;;;-1.40;99.90;;;;;;5028767;28;20034;-73
2021/12/26 01:06:09;;;;;;;6.05;2.47;;;-1.40;99.90;;;;;;5028850;28;20030;-73
2021/12/26 01:08:39;;;;;;;5.03;2.70;;;-1.40;99.90;;;;;;5028822;27;20124;-73
2021/12/26 01:11:23;;;;;;;5.82;2.70;;;-1.50;99.90;;;;;;5028409;28;20508;-73
2021/12/26 01:13:50;;;;;;;7.30;2.75;;;-1.50;99.90;;;;;;5029032;28;20036;-73
2021/12/26 01:16:17;;;;;;;5.75;2.60;;;-1.50;99.90;;;;;;5028167;28;20041;-73
2021/12/26 01:18:51;;;;;;;4.55;2.45;;;-1.50;99.90;;;;;;5028400;28;20018;-72
2021/12/26 01:21:21;;;;;;;7.43;3.17;;;-1.50;99.90;;;;;;5028238;28;20388;-73
2021/12/26 01:23:51;;;;;;;5.93;2.80;;;-1.50;99.90;;;;;;5028299;28;20034;-73
2021/12/26 01:26:17;;;;;;;4.47;2.70;;;-1.50;99.90;;;;;;5028227;28;20394;-73
2021/12/26 01:28:43;;;;;;;5.53;2.50;;;-1.50;99.90;;;;;;5027132;28;20026;-73
2021/12/26 01:31:08;;;;;;;5.75;2.53;;;-1.50;99.90;;;;;;5026807;28;20021;-73
2021/12/26 01:33:35;;;;;;;4.88;2.47;;;-1.60;99.90;;;;;;5028280;28;20135;-73
2021/12/26 01:36:01;;;;;;;6.20;2.70;;;-1.60;99.90;;;;;;5028104;28;20054;-73
2021/12/26 01:38:26;;;;;;;4.65;2.70;;;-1.60;99.90;;;;;;5028505;28;20045;-73
2021/12/26 01:40:57;;;;;;;5.20;2.63;;;-1.60;99.90;;;;;;5028032;28;20041;-73
2021/12/26 01:43:30;;;;;;;4.15;2.70;;;-1.60;99.90;;;;;;5026861;28;20028;-73
2021/12/26 01:45:56;;;;;;;4.05;2.40;;;-1.60;99.90;;;;;;5028198;28;20099;-73
2021/12/26 01:48:22;;;;;;;4.72;2.55;;;-1.60;99.90;;;;;;5027980;28;20060;-73
2021/12/26 01:50:51;;;;;;;6.70;2.88;;;-1.60;99.90;;;;;;5028051;28;20017;-73
2021/12/26 01:53:19;;;;;;;4.13;2.70;;;-1.60;99.90;;;;;;5027919;28;20493;-73
2021/12/26 01:55:46;;;;;;;4.57;2.92;;;-1.60;99.90;;;;;;5027785;28;20112;-73
2021/12/26 01:58:29;;;;;;;5.88;2.70;;;-1.60;99.90;;;;;;5027976;28;20356;-73
2021/12/26 02:00:59;;;;;;;4.25;2.22;;;-1.60;99.90;;;;;;5026569;28;20025;-73
2021/12/26 02:03:24;;;;;;;3.95;2.40;;;-1.60;99.90;;;;;;5027885;28;20069;-74
2021/12/26 02:05:50;;;;;;;6.80;2.55;;;-1.60;99.90;;;;;;5026196;28;20458;-73
2021/12/26 02:08:16;;;;;;;3.97;2.50;;;-1.60;99.90;;;;;;5027617;28;20033;-73
2021/12/26 02:10:42;;;;;;;5.65;2.58;;;-1.60;99.90;;;;;;5027622;28;20100;-73
2021/12/26 02:13:08;;;;;;;4.63;2.42;;;-1.60;99.90;;;;;;5026206;28;20018;-73
2021/12/26 02:15:35;;;;;;;5.35;2.78;;;-1.60;99.90;;;;;;5027771;28;20142;-72
2021/12/26 02:18:01;;;;;;;5.63;2.30;;;-1.60;99.90;;;;;;5026172;28;20070;-73
2021/12/26 02:20:49;;;;;;;7.38;2.58;;;-1.60;99.90;;;;;;5027489;28;20074;-73
2021/12/26 02:23:22;;;;;;;6.22;3.05;;;-1.60;99.90;;;;;;5027503;28;20033;-73
2021/12/26 02:28:25;;;;;;;4.90;2.80;;;-1.60;99.90;;;;;;5027545;28;20421;-73
2021/12/26 02:30:52;;;;;;;5.18;2.67;;;-1.60;99.90;;;;;;5027314;28;20045;-73
2021/12/26 02:33:19;;;;;;;4.25;2.53;;;-1.60;99.90;;;;;;5025616;28;20383;-73
2021/12/26 02:35:46;;;;;;;4.95;2.55;;;-1.60;99.90;;;;;;5027368;28;20021;-73
2021/12/26 02:38:12;;;;;;;4.85;2.70;;;-1.60;99.90;;;;;;5027438;28;20444;-74
2021/12/26 02:40:39;;;;;;;7.22;2.85;;;-1.60;99.90;;;;;;5028995;28;20044;-72
2021/12/26 02:43:06;;;;;;;4.63;3.03;;;-1.60;99.90;;;;;;5030701;28;20559;-73
2021/12/26 02:45:32;;;;;;;3.55;2.40;;;-1.70;99.90;;;;;;5031279;28;20041;-73
2021/12/26 02:47:58;;;;;;;6.38;2.75;;;-1.70;99.90;;;;;;5030722;28;20530;-73
2021/12/26 02:50:27;;;;;;;7.43;2.92;;;-1.70;99.90;;;;;;5030782;28;20092;-73
2021/12/26 02:52:54;;;;;;;3.80;2.60;;;-1.70;99.90;;;;;;5030490;28;20018;-73
2021/12/26 02:55:21;;;;;;;4.28;2.40;;;-1.70;99.90;;;;;;5030359;28;20032;-73
2021/12/26 02:57:49;;;;;;;3.85;2.33;;;-1.70;99.90;;;;;;5029153;28;20036;-73
2021/12/26 03:00:21;;;;;;;3.35;2.28;;;-1.70;99.90;;;;;;5029173;28;20094;-73
2021/12/26 03:02:50;;;;;;;5.72;2.60;;;-1.70;99.90;;;;;;5030623;28;20439;-73
2021/12/26 03:05:17;;;;;;;5.18;2.83;;;-1.70;99.90;;;;;;5030278;28;20021;-73
2021/12/26 03:07:44;;;;;;;3.83;2.25;;;-1.70;99.90;;;;;;5030551;28;20104;-73
2021/12/26 03:10:20;;;;;;;4.35;2.53;;;-1.70;99.90;;;;;;5030597;28;20033;-73
2021/12/26 03:12:46;;;;;;;5.13;2.63;;;-1.70;99.90;;;;;;5030787;28;20090;-73
2021/12/26 03:15:11;;;;;;;5.30;2.30;;;-1.70;99.90;;;;;;5030193;28;20041;-73
2021/12/26 03:17:38;;;;;;;6.53;2.50;;;-1.70;99.90;;;;;;5030093;28;20104;-73
2021/12/26 03:20:12;;;;;;;4.35;2.50;;;-1.70;99.90;;;;;;5030049;28;20051;-73
2021/12/26 03:22:38;;;;;;;4.25;2.20;;;-1.70;99.90;;;;;;5030139;28;20397;-73
2021/12/26 03:25:09;;;;;;;6.78;2.45;;;-1.70;99.90;;;;;;5028962;28;20108;-73
2021/12/26 03:27:35;;;;;;;6.50;2.50;;;-1.80;99.90;;;;;;5030299;28;20041;-73
2021/12/26 03:30:00;;;;;;;4.57;2.53;;;-1.80;99.90;;;;;;5030120;28;20095;-73
2021/12/26 03:32:26;;;;;;;6.03;2.67;;;-1.80;99.90;;;;;;5028777;28;20124;-73
2021/12/26 03:34:51;;;;;;;4.43;2.50;;;-1.70;99.90;;;;;;5029692;28;20116;-73
2021/12/26 03:37:17;;;;;;;6.75;2.53;;;-1.80;99.90;;;;;;5028408;28;20424;-72
2021/12/26 03:39:44;;;;;;;6.28;2.70;;;-1.80;99.90;;;;;;5029787;28;20032;-73
2021/12/26 03:42:10;;;;;;;5.57;2.58;;;-1.80;99.90;;;;;;5028697;28;20030;-73
2021/12/26 03:44:36;;;;;;;6.10;2.50;;;-1.80;99.90;;;;;;5028196;28;20202;-73
2021/12/26 03:47:03;;;;;;;4.32;2.40;;;-1.80;99.90;;;;;;5029562;28;20034;-72
2021/12/26 03:49:28;;;;;;;4.13;2.25;;;-1.80;99.90;;;;;;5047570;28;20029;-73
2021/12/26 03:51:54;;;;;;;6.35;2.40;;;-1.80;99.90;;;;;;5048804;28;20029;-73
2021/12/26 03:54:20;;;;;;;5.07;2.70;;;-1.90;99.90;;;;;;5049606;28;20029;-73
2021/12/26 03:56:46;;;;;;;5.18;2.75;;;-1.90;99.90;;;;;;5049502;28;20474;-73
2021/12/26 03:59:11;;;;;;;5.20;2.60;;;-1.90;99.90;;;;;;5049691;28;20108;-73
2021/12/26 04:01:37;;;;;;;3.17;2.28;;;-1.90;99.90;;;;;;5049670;28;20032;-73
2021/12/26 04:04:03;;;;;;;5.05;2.70;;;-1.90;99.90;;;;;;5049220;28;20029;-74
2021/12/26 04:06:28;;;;;;;4.00;2.67;;;-1.90;99.90;;;;;;5049366;28;20039;-73
2021/12/26 04:08:56;;;;;;;5.05;2.60;;;-1.90;99.90;;;;;;5049081;28;20489;-73
2021/12/26 04:11:23;;;;;;;5.18;2.65;;;-1.90;99.90;;;;;;5049077;28;20025;-73
2021/12/26 04:13:49;;;;;;;3.70;2.35;;;-1.90;99.90;;;;;;5047795;28;20068;-73
2021/12/26 04:16:14;;;;;;;4.35;2.63;;;-1.90;99.90;;;;;;5049347;28;20484;-73
2021/12/26 04:18:40;;;;;;;4.82;2.60;;;-1.90;99.90;;;;;;5064476;28;20108;-73
2021/12/26 04:21:06;;;;;;;4.93;2.58;;;-1.90;99.90;;;;;;5049040;28;20017;-74
2021/12/26 04:23:33;;;;;;;3.65;2.35;;;-1.90;99.90;;;;;;5049238;28;20087;-74
2021/12/26 04:25:59;;;;;;;6.20;2.80;;;-1.90;99.90;;;;;;5048836;28;20053;-74
2021/12/26 04:28:25;;;;;;;3.47;2.20;;;-1.90;99.90;;;;;;5048705;27;20064;-74
2021/12/26 04:30:51;;;;;;;7.68;3.10;;;-1.90;99.90;;;;;;5048944;28;20013;-72
2021/12/26 04:33:16;;;;;;;3.97;2.60;;;-1.90;99.90;;;;;;5048996;28;20023;-72
2021/12/26 04:35:42;;;;;;;4.72;2.78;;;-1.90;99.90;;;;;;5049009;28;20025;-72
2021/12/26 04:38:07;;;;;;;3.72;2.30;;;-1.90;99.90;;;;;;5049363;28;20058;-72
2021/12/26 04:40:33;;;;;;;5.55;2.60;;;-1.90;99.90;;;;;;5047364;28;20524;-72
2021/12/26 04:42:59;;;;;;;4.40;2.80;;;-1.90;99.90;;;;;;5048878;28;20081;-72
2021/12/26 04:45:26;;;;;;;5.22;2.67;;;-1.90;99.90;;;;;;5048949;28;20108;-72
2021/12/26 04:47:52;;;;;;;4.18;2.53;;;-1.90;99.90;;;;;;5049014;28;20305;-72
2021/12/26 04:50:24;;;;;;;6.35;2.80;;;-1.90;99.90;;;;;;5049184;28;20409;-71
2021/12/26 04:52:51;;;;;;;4.05;2.63;;;-1.90;99.90;;;;;;5048667;28;20048;-72
2021/12/26 04:55:20;;;;;;;5.38;2.75;;;-1.90;99.90;;;;;;5048701;28;20029;-74
2021/12/26 04:57:46;;;;;;;6.53;2.97;;;-1.90;99.90;;;;;;5048645;28;20095;-71
2021/12/26 05:00:18;;;;;;;8.15;2.78;;;-1.90;99.90;;;;;;5048842;28;20093;-72
2021/12/26 05:02:44;;;;;;;4.03;2.42;;;-1.90;99.90;;;;;;5047545;27;20033;-72
2021/12/26 05:05:12;;;;;;;4.45;2.50;;;-1.90;99.90;;;;;;5048406;28;20028;-71
2021/12/26 05:07:39;;;;;;;6.95;2.67;;;-2.00;99.90;;;;;;5049014;27;20037;-71
2021/12/26 05:10:06;;;;;;;4.55;2.55;;;-1.90;99.90;;;;;;5048220;28;20061;-72
2021/12/26 05:12:32;;;;;;;6.10;2.80;;;-1.90;99.90;;;;;;5048509;28;20120;-72
2021/12/26 05:14:57;;;;;;;5.13;2.75;;;-1.90;99.90;;;;;;5063629;28;20104;-72
2021/12/26 05:17:23;;;;;;;4.38;2.60;;;-1.90;99.90;;;;;;5048739;28;20025;-72
2021/12/26 05:19:49;;;;;;;4.80;2.75;;;-1.90;99.90;;;;;;5048191;28;20025;-72
2021/12/26 05:22:14;;;;;;;6.20;2.97;;;-1.90;99.90;;;;;;5048300;28;20017;-72
2021/12/26 05:24:40;;;;;;;4.63;2.70;;;-1.90;99.90;;;;;;5048155;28;20029;-71
2021/12/26 05:27:05;;;;;;;5.90;2.72;;;-1.90;99.90;;;;;;5048256;28;20028;-73
2021/12/26 05:29:31;;;;;;;5.25;2.63;;;-2.00;99.90;;;;;;5047991;28;20049;-72
2021/12/26 05:31:57;;;;;;;6.00;2.70;;;-2.00;99.90;;;;;;5048081;28;20052;-72
2021/12/26 05:34:22;;;;;;;5.65;2.78;;;-2.00;99.90;;;;;;5047816;28;20021;-72
2021/12/26 05:36:48;;;;;;;4.00;2.45;;;-2.00;99.90;;;;;;5047741;28;20164;-72
2021/12/26 05:39:14;;;;;;;5.72;2.70;;;-2.10;99.90;;;;;;5047924;28;20025;-72
2021/12/26 05:41:41;;;;;;;5.68;2.85;;;-2.10;99.90;;;;;;5047863;28;20048;-73
2021/12/26 05:44:08;;;;;;;5.63;2.80;;;-2.10;99.90;;;;;;5047907;28;20033;-72
2021/12/26 05:46:34;;;;;;;5.00;2.70;;;-2.10;99.90;;;;;;5047973;28;20029;-71
2021/12/26 05:49:00;;;;;;;6.20;2.90;;;-2.10;99.90;;;;;;5048090;28;20021;-72
2021/12/26 05:51:26;;;;;;;5.43;2.42;;;-2.10;99.90;;;;;;5047552;28;20032;-72
2021/12/26 05:53:52;;;;;;;6.00;2.78;;;-2.10;99.90;;;;;;5063625;28;20378;-72
2021/12/26 05:56:18;;;;;;;4.68;2.70;;;-2.10;99.90;;;;;;5047630;28;20029;-73
2021/12/26 05:58:43;;;;;;;4.57;2.83;;;-2.10;99.90;;;;;;5047992;28;20017;-72
2021/12/26 06:01:09;;;;;;;6.57;3.30;;;-2.10;99.90;;;;;;5047502;28;20032;-73
2021/12/26 06:03:36;;;;;;;4.72;2.55;;;-2.10;99.90;;;;;;5047541;28;20108;-72
2021/12/26 06:06:01;;;;;;;4.65;2.78;;;-2.10;99.90;;;;;;5047505;28;20037;-72
2021/12/26 06:08:27;;;;;;;4.45;2.75;;;-2.10;99.90;;;;;;5047970;28;20027;-73
2021/12/26 06:10:52;;;;;;;4.95;3.00;;;-2.10;99.90;;;;;;5047450;28;20013;-72
2021/12/26 06:13:18;;;;;;;6.32;2.92;;;-2.10;99.90;;;;;;5047661;28;20086;-73
2021/12/26 06:15:43;;;;;;;5.03;3.08;;;-2.10;99.90;;;;;;5047302;28;20028;-73
2021/12/26 06:18:09;;;;;;;6.07;2.80;;;-2.10;99.90;;;;;;5047480;28;20367;-73
2021/12/26 06:20:35;;;;;;;4.75;3.10;;;-2.10;99.90;;;;;;5047211;28;20014;-72
2021/12/26 06:23:00;;;;;;;5.70;3.10;;;-2.10;99.90;;;;;;5047428;28;20044;-73
2021/12/26 06:25:26;;;;;;;4.20;2.65;;;-2.10;99.90;;;;;;5047090;28;20100;-72
2021/12/26 06:27:52;;;;;;;9.48;3.13;;;-2.10;99.90;;;;;;5047355;28;20406;-72
2021/12/26 06:30:17;;;;;;;4.93;2.80;;;-2.10;99.90;;;;;;5062393;28;20052;-72
2021/12/26 06:32:43;;;;;;;5.72;2.80;;;-2.10;99.90;;;;;;5047203;28;20047;-72
2021/12/26 06:35:09;;;;;;;5.30;2.92;;;-2.10;99.90;;;;;;5062603;28;20474;-72
2021/12/26 06:37:36;;;;;;;4.00;2.53;;;-2.10;99.90;;;;;;5047400;28;20367;-72
2021/12/26 06:40:02;;;;;;;5.25;2.72;;;-2.10;99.90;;;;;;5046171;28;20468;-73
2021/12/26 06:42:30;;;;;;;5.18;2.70;;;-2.10;99.90;;;;;;5047223;28;20070;-73
2021/12/26 06:44:55;;;;;;;5.57;2.55;;;-2.20;99.90;;;;;;5047337;28;20025;-73
2021/12/26 06:47:22;;;;;;;5.63;2.80;;;-2.20;99.90;;;;;;5047096;28;20032;-73
2021/12/26 06:49:48;;;;;;;5.18;2.67;;;-2.20;99.90;;;;;;5062281;28;20035;-73
2021/12/26 06:52:13;;;;;;;3.95;2.90;;;-2.20;99.90;;;;;;5046962;28;20025;-73
2021/12/26 06:54:40;;;;;;;4.15;2.60;;;-2.20;99.90;;;;;;5062474;28;20060;-72
2021/12/26 06:57:06;;;;;;;4.60;3.00;;;-2.20;99.90;;;;;;5047234;28;20055;-73
2021/12/26 06:59:32;;;;;;;5.00;2.75;;;-2.20;99.90;;;;;;5062267;28;20367;-73
2021/12/26 07:01:58;;;;;;;4.13;2.67;;;-2.20;99.90;;;;;;5046835;28;20048;-72
2021/12/26 07:04:24;;;;;;;5.38;2.95;;;-2.20;99.90;;;;;;5047966;28;20477;-72
2021/12/26 07:06:49;;;;;;;5.30;2.72;;;-2.20;99.90;;;;;;5051773;28;20525;-73
2021/12/26 07:09:15;;;;;;;5.25;2.83;;;-2.20;99.90;;;;;;5029987;28;20124;-73
2021/12/26 07:11:41;;;;;;;4.72;2.80;;;-2.20;99.90;;;;;;5034562;28;20066;-72
2021/12/26 07:14:07;;;;;;;6.47;3.03;;;-2.20;99.90;;;;;;5029149;28;20465;-72
2021/12/26 07:16:33;;;;;;;5.20;2.63;;;-2.20;99.90;;;;;;5026819;28;20379;-73
2021/12/26 07:18:59;;;;;;;4.97;2.88;;;-2.20;99.90;;;;;;5027246;28;20032;-72
2021/12/26 07:21:25;;;;;;;4.78;2.70;;;-2.20;99.90;;;;;;5031115;28;20036;-72
2021/12/26 07:23:50;;;;;;;6.47;2.90;;;-2.20;99.90;;;;;;5080093;28;20029;-72
2021/12/26 07:26:16;;;;;;;4.35;2.80;;;-2.20;99.90;;;;;;5027041;28;20049;-71
2021/12/26 07:28:41;;;;;;;4.80;2.70;;;-2.20;99.90;;;;;;5029986;28;20406;-72
2021/12/26 07:31:08;;;;;;;4.85;2.95;;;-2.20;99.90;;;;;;5034935;28;20115;-74
2021/12/26 07:33:33;;;;;;;4.43;2.97;;;-2.10;99.90;;;;;;5035312;28;20021;-72
2021/12/26 07:35:59;;;;;;;7.53;2.95;;;-2.10;99.90;;;;;;5044197;28;20053;-72
2021/12/26 07:38:25;;;;;;;6.05;3.28;;;-2.20;99.90;;;;;;5033730;28;20478;-72
2021/12/26 07:40:50;;;;;;;6.53;3.30;;;-2.10;99.90;;;;;;5031427;28;20033;-72
2021/12/26 07:43:16;;;;;;;7.03;3.30;;;-2.20;99.90;;;;;;5043062;28;20021;-72
2021/12/26 07:45:42;;;;;;;4.60;2.85;;;-2.20;99.90;;;;;;5032272;28;20026;-72
2021/12/26 07:48:07;;;;;;;7.93;3.00;;;-2.20;99.90;;;;;;5038952;28;20033;-72
2021/12/26 07:50:33;;;;;;;4.60;2.78;;;-2.20;99.90;;;;;;5032581;28;20036;-71
2021/12/26 07:53:04;;;;;;;6.00;3.10;;;-2.10;99.90;;;;;;5052807;27;20037;-70
2021/12/26 07:55:30;;;;;;;6.55;3.45;;;-2.10;99.90;;;;;;5047371;28;20025;-70
2021/12/26 07:57:56;;;;;;;7.72;3.35;;;-2.10;99.90;;;;;;5051697;28;20021;-71
2021/12/26 08:00:22;;;;;;;6.15;3.00;;;-2.10;99.90;;;;;;5045915;27;20060;-71
2021/12/26 08:02:48;;;;;;;5.80;3.25;;;-2.10;99.90;;;;;;5037702;28;20036;-73
2021/12/26 08:05:15;;;;;;;4.95;3.17;;;-2.10;99.90;;;;;;5069191;28;20025;-71
2021/12/26 08:07:41;;;;;;;7.22;3.22;;;-2.10;99.90;;;;;;5053347;28;20046;-72
2021/12/26 08:10:07;;;;;;;5.53;2.90;;;-2.10;99.90;;;;;;5033631;28;20033;-72
2021/12/26 08:12:33;;;;;;;7.28;3.63;;;-2.10;99.90;;;;;;5034120;28;20025;-71
2021/12/26 08:15:01;;;;;;;6.13;3.17;;;-2.10;99.90;;;;;;5033451;28;20049;-71
2021/12/26 08:17:28;;;;;;;4.72;3.05;;;-2.10;99.90;;;;;;5033773;28;20506;-71
2021/12/26 08:19:53;;;;;;;7.32;3.33;;;-2.10;99.90;;;;;;5033090;28;20117;-71
2021/12/26 08:22:19;;;;;;;4.75;3.20;;;-2.10;99.90;;;;;;5033401;28;20046;-71
2021/12/26 08:24:45;;;;;;;6.13;3.25;;;-2.00;99.90;;;;;;5034005;28;20047;-72
2021/12/26 08:27:10;;;;;;;5.40;3.17;;;-2.00;99.90;;;;;;5034082;28;20033;-71
2021/12/26 08:29:36;;;;;;;6.50;3.50;;;-2.00;99.90;;;;;;5034093;28;20058;-72
2021/12/26 08:32:02;;;;;;;5.13;3.13;;;-2.00;99.90;;;;;;5034268;28;20082;-71
2021/12/26 08:34:27;;;;;;;5.15;3.28;;;-2.00;99.90;;;;;;5034673;28;20448;-72
2021/12/26 08:37:01;;;;;;;6.65;3.20;;;-2.00;99.90;;;;;;5033618;28;20032;-72
2021/12/26 08:39:39;;;;;;;6.60;3.47;;;-2.00;99.90;;;;;;5035639;28;20021;-70
2021/12/26 08:42:06;;;;;;;5.65;3.47;;;-2.00;99.90;;;;;;5035701;28;20036;-73
2021/12/26 08:44:33;;;;;;;6.03;3.33;;;-2.00;99.90;;;;;;5033260;28;20029;-72
2021/12/26 08:46:59;;;;;;;4.43;3.05;;;-1.90;99.90;;;;;;5034018;28;20036;-71
2021/12/26 08:49:25;;;;;;;6.88;3.33;;;-1.90;99.90;;;;;;5033290;28;20031;-71
2021/12/26 08:51:50;;;;;;;6.22;3.10;;;-1.90;99.90;;;;;;5045042;28;20092;-71
2021/12/26 08:54:16;;;;;;;5.88;3.38;;;-1.80;99.90;;;;;;5070800;27;20036;-72
2021/12/26 08:56:43;;;;;;;6.63;3.58;;;-1.80;99.90;;;;;;5054131;28;20025;-72
2021/12/26 08:59:09;;;;;;;6.80;3.35;;;-1.80;99.90;;;;;;5086882;27;20023;-72
2021/12/26 09:01:36;;;;;;;6.88;3.67;;;-1.70;99.90;;;;;;5035910;27;20029;-72
2021/12/26 09:04:02;;;;;;;5.28;3.05;;;-1.70;99.90;;;;;;5127891;27;20222;-72
2021/12/26 09:06:28;;;;;;;7.15;3.40;;;-1.70;99.90;;;;;;5044984;27;20026;-71
2021/12/26 09:08:54;;;;;;;5.57;3.50;;;-1.60;99.90;;;;;;5028680;28;20104;-71
2021/12/26 09:11:19;;;;;;;6.43;3.25;;;-1.60;99.90;;;;;;5035609;28;20104;-72
2021/12/26 09:13:47;;;;;;;5.70;3.45;;;-1.60;99.90;;;;;;5033969;28;20034;-72
2021/12/26 09:16:13;;;;;;;6.57;3.60;;;-1.60;99.90;;;;;;5041091;28;20022;-72
2021/12/26 09:18:39;;;;;;;5.63;3.35;;;-1.60;99.90;;;;;;5033353;28;20030;-72
2021/12/26 09:21:05;;;;;;;5.82;3.30;;;-1.60;99.90;;;;;;5032911;28;20025;-72
2021/12/26 09:23:31;;;;;;;5.20;3.50;;;-1.60;99.90;;;;;;5033167;28;20021;-72
2021/12/26 09:25:57;;;;;;;6.70;3.85;;;-1.60;99.90;;;;;;5033588;28;20033;-73
2021/12/26 09:28:22;;;;;;;6.72;3.70;;;-1.50;99.90;;;;;;5033868;28;20368;-72
2021/12/26 09:30:48;;;;;;;5.88;3.80;;;-1.50;99.90;;;;;;5042275;28;20054;-73
2021/12/26 09:33:19;;;;;;;6.25;3.78;;;-1.40;99.90;;;;;;5036124;28;20456;-71
2021/12/26 09:35:46;;;;;;;6.38;3.67;;;-1.40;99.90;;;;;;5034563;28;20036;-71
2021/12/26 09:38:12;;;;;;;5.75;3.70;;;-1.40;99.90;;;;;;5036995;28;20085;-72
2021/12/26 09:40:38;;;;;;;5.65;3.60;;;-1.30;99.90;;;;;;5031280;28;21125;-73
2021/12/26 09:43:04;;;;;;;5.63;3.53;;;-1.20;99.90;;;;;;5032047;28;20029;-73
2021/12/26 09:45:29;;;;;;;8.10;3.78;;;-1.20;99.90;;;;;;5033019;28;20406;-73
2021/12/26 09:47:55;;;;;;;8.88;4.22;;;-1.10;99.90;;;;;;5030710;28;20061;-74
2021/12/26 09:50:21;;;;;;;7.32;3.72;;;-1.10;99.90;;;;;;5027497;28;20026;-73
2021/12/26 09:52:48;;;;;;;6.88;3.80;;;-1.00;99.90;;;;;;5029107;28;20049;-74
2021/12/26 09:55:15;;;;;;;9.25;3.75;;;-0.90;99.90;;;;;;5029756;28;20057;-73
2021/12/26 09:57:41;;;;;;;8.90;3.90;;;-0.90;99.90;;;;;;5027579;28;20113;-73
2021/12/26 10:00:38;;;;;;;7.03;3.67;;;-0.90;99.90;;;;;;5118879;27;20108;-73
2021/12/26 10:03:22;;;;;;;6.53;3.53;;;-0.70;99.90;;;;;;5040135;27;20040;-72
2021/12/26 10:06:10;;;;;;;6.43;3.92;;;-0.70;99.90;;;;;;5029994;28;20076;-74
2021/12/26 10:09:02;;;;;;;8.15;4.10;;;-0.70;99.90;;;;;;5033684;28;20099;-73
2021/12/26 10:11:34;;;;;;;8.82;4.30;;;-0.60;99.90;;;;;;5045416;28;20033;-74
2021/12/26 10:14:14;;;;;;;7.57;4.22;;;-0.60;99.90;;;;;;5047414;27;20033;-74
2021/12/26 10:16:50;;;;;;;6.15;3.72;;;-0.50;99.90;;;;;;5050057;27;20033;-75
2021/12/26 10:19:17;;;;;;;6.57;3.97;;;-0.50;99.90;;;;;;5044872;28;20026;-74
2021/12/26 10:21:54;;;;;;;8.57;3.83;;;-0.40;99.90;;;;;;5031085;28;20108;-74
2021/12/26 10:24:23;;;;;;;8.35;4.45;;;-0.40;99.90;;;;;;5090621;28;20023;-73
2021/12/26 10:26:57;;;;;;;8.45;4.07;;;-0.30;99.90;;;;;;5094786;27;20026;-74
2021/12/26 10:29:33;;;;;;;8.35;4.70;;;-0.30;99.90;;;;;;5034274;28;20412;-73
2021/12/26 10:32:08;;;;;;;9.75;4.80;;;-0.20;99.90;;;;;;5044154;28;20033;-74
2021/12/26 10:34:36;;;;;;;8.63;4.18;;;-0.10;99.90;;;;;;5038173;28;20379;-74
2021/12/26 10:37:10;;;;;;;9.57;4.50;;;-0.10;99.90;;;;;;5045248;28;20029;-74
2021/12/26 10:39:42;;;;;;;6.60;4.40;;;0.00;99.90;;;;;;5036951;28;20435;-74
2021/12/26 10:42:11;;;;;;;8.60;4.75;;;0.00;99.90;;;;;;5031845;28;20032;-74
2021/12/26 10:44:41;;;;;;;7.40;4.53;;;0.10;99.90;;;;;;5028673;28;20464;-74
2021/12/26 10:47:17;;;;;;;8.95;5.00;;;0.10;99.90;;;;;;5026983;28;20031;-75
2021/12/26 10:49:54;;;;;;;7.80;5.10;;;0.20;99.90;;;;;;5027427;28;20506;-73
2021/12/26 10:52:39;;;;;;;7.95;4.72;;;0.20;99.90;;;;;;5038632;28;20034;-74
2021/12/26 10:55:14;;;;;;;7.32;4.70;;;0.20;99.90;;;;;;5027864;28;20458;-73
2021/12/26 10:57:39;;;;;;;;;;;0.20;99.90;;;;;;5028459;28;20386;-73
2021/12/26 11:00:26;;;;;;;10.20;4.72;;;0.30;99.90;;;;;;5027391;28;19920;-73
2021/12/26 11:03:06;;;;;;;9.93;5.40;;;0.30;99.90;;;;;;5030644;28;20035;-75
2021/12/26 11:05:38;;;;;;;9.60;5.38;;;0.40;99.90;;;;;;5031519;28;20056;-75
2021/12/26 11:08:07;;;;;;;7.68;4.88;;;0.40;99.90;;;;;;5030799;28;20436;-74
2021/12/26 11:10:34;;;;;;;7.47;4.70;;;0.50;99.90;;;;;;5030392;28;20029;-75
2021/12/26 11:13:03;;;;;;;8.25;5.38;;;0.50;99.90;;;;;;5031073;28;20033;-73
2021/12/26 11:15:38;;;;;;;8.38;5.10;;;0.60;99.90;;;;;;5030548;28;20026;-75
2021/12/26 11:18:09;;;;;;;9.27;5.88;;;0.60;99.90;;;;;;5030820;28;20168;-74
2021/12/26 11:20:35;;;;;;;9.90;5.38;;;0.70;99.90;;;;;;5030253;28;20101;-75
2021/12/26 11:23:09;;;;;;;10.48;5.57;;;0.70;99.90;;;;;;5030483;28;20428;-74
2021/12/26 11:25:37;;;;;;;12.20;5.97;;;0.80;99.90;;;;;;5030309;28;20025;-75
2021/12/26 11:28:03;;;;;;;11.20;5.68;;;0.80;99.90;;;;;;5030565;28;20459;-75
2021/12/26 11:30:28;;;;;;;9.63;6.03;;;0.80;99.90;;;;;;5030482;28;20084;-75
2021/12/26 11:32:54;;;;;;;12.73;5.88;;;0.90;99.90;;;;;;5030081;28;20033;-75
2021/12/26 11:35:20;;;;;;;9.57;5.72;;;0.90;99.90;;;;;;5045416;28;20024;-75
2021/12/26 11:37:46;;;;;;;9.32;5.78;;;1.00;99.90;;;;;;5033097;28;20025;-74
2021/12/26 11:40:15;;;;;;;10.15;5.57;;;1.00;99.90;;;;;;5031162;28;20021;-75
2021/12/26 11:43:08;;;;;;;9.48;6.20;;;1.00;99.90;;;;;;5038942;28;20024;-75
2021/12/26 11:45:53;;;;;;;9.40;5.30;;;1.10;99.90;;;;;;5035255;28;20029;-74
2021/12/26 11:48:59;;;;;;;9.15;6.13;;;1.10;99.90;;;;;;5030219;28;20064;-74
2021/12/26 11:51:50;;;;;;;8.85;5.20;;;1.10;99.90;;;;;;5047773;27;20044;-75
2021/12/26 11:54:18;;;;;;;9.10;5.13;;;1.10;99.90;;;;;;5033316;27;20052;-75
2021/12/26 11:57:08;;;;;;;10.48;6.20;;;1.20;99.90;;;;;;5045494;28;20053;-75
2021/12/26 12:00:10;;;;;;;9.27;5.40;;;1.20;99.90;;;;;;5033675;28;20029;-75
2021/12/26 12:02:38;;;;;;;11.05;5.75;;;1.30;99.90;;;;;;5074461;28;20091;-75
2021/12/26 12:05:18;;;;;;;10.38;5.85;;;1.30;99.90;;;;;;5032415;28;20038;-75
2021/12/26 12:07:46;;;;;;;10.95;5.80;;;1.30;99.90;;;;;;5032019;28;20041;-75
2021/12/26 12:10:34;;;;;;;10.32;5.78;;;1.30;99.90;;;;;;5047664;28;20041;-74
2021/12/26 12:13:00;;;;;;;10.35;5.90;;;1.30;99.90;;;;;;5031477;28;20102;-75
2021/12/26 12:15:44;;;;;;;10.32;6.03;;;1.40;99.90;;;;;;5032243;28;20029;-74
2021/12/26 12:18:16;;;;;;;9.88;5.80;;;1.40;99.90;;;;;;5134422;27;20060;-73
2021/12/26 12:20:42;;;;;;;11.93;6.15;;;1.40;99.90;;;;;;5031317;28;20033;-75
2021/12/26 12:23:08;;;;;;;10.02;6.20;;;1.40;99.90;;;;;;5029033;28;20105;-73
2021/12/26 12:25:33;;;;;;;9.80;5.80;;;1.40;99.90;;;;;;5029992;28;20116;-75
2021/12/26 12:28:16;;;;;;;9.57;6.07;;;1.40;99.90;;;;;;5029217;28;20041;-74
2021/12/26 12:30:45;;;;;;;9.10;6.10;;;1.40;99.90;;;;;;5027678;28;20099;-76
2021/12/26 12:33:19;;;;;;;11.43;6.10;;;1.50;99.90;;;;;;5042386;28;20029;-74
2021/12/26 12:35:51;;;;;;;9.27;5.93;;;1.50;99.90;;;;;;5047341;28;20573;-74
2021/12/26 12:38:28;;;;;;;10.43;6.43;;;1.50;99.90;;;;;;5047870;28;20028;-74
2021/12/26 12:40:55;;;;;;;13.27;6.95;;;1.50;99.90;;;;;;5130543;27;20029;-75
2021/12/26 12:43:23;;;;;;;12.95;6.82;;;1.50;99.90;;;;;;5039917;28;20109;-74
2021/12/26 12:46:04;;;;;;;13.07;6.75;;;1.60;99.90;;;;;;5033269;28;20094;-74
2021/12/26 12:48:38;;;;;;;12.13;6.50;;;1.60;99.90;;;;;;5039967;28;20089;-76
2021/12/26 12:51:26;;;;;;;10.93;6.63;;;1.60;99.90;;;;;;5045444;28;20025;-74
2021/12/26 12:53:58;;;;;;;11.85;6.50;;;1.60;99.90;;;;;;5039151;28;20056;-76
2021/12/26 12:56:27;;;;;;;12.25;6.75;;;1.60;99.90;;;;;;5030867;28;20018;-75